sensor_id;sensor_type;location;lat;lon;timestamp;temperature;humidity
1468;DHT22;727;48.892;9.544;2023-06-22T00:02:01;19.50;99.90
1468;DHT22;727;48.892;9.544;2023-06-22T00:04:28;19.50;99.90
1468;DHT22;727;48.892;9.544;2023-06-22T00:06:54;19.50;99.90
1468;DHT22;727;48.892;9.544;2023-06-22T00:09:21;19.40;99.90
1468;DHT22;727;48.892;9.544;2023-06-22T00:11:49;19.40;99.90
1468;DHT22;727;48.892;9.544;2023-06-22T00:14:16;19.50;99.90
1468;DHT22;727;48.892;9.544;2023-06-22T00:16:43;19.50;99.90
1468;DHT22;727;48.892;9.544;2023-06-22T00:19:10;19.50;99.90
1468;DHT22;727;48.892;9.544;2023-06-22T00:21:37;19.50;99.90
1468;DHT22;727;48.892;9.544;2023-06-22T00:24:05;19.50;99.90
1468;DHT22;727;48.892;9.544;2023-06-22T00:26:32;19.50;99.90
1468;DHT22;727;48.892;9.544;2023-06-22T00:29:00;19.40;99.90
1468;DHT22;727;48.892;9.544;2023-06-22T00:31:27;19.40;99.90
1468;DHT22;727;48.892;9.544;2023-06-22T00:33:54;19.30;99.90
1468;DHT22;727;48.892;9.544;2023-06-22T00:36:21;19.30;99.90
1468;DHT22;727;48.892;9.544;2023-06-22T00:38:50;19.30;99.90
1468;DHT22;727;48.892;9.544;2023-06-22T00:41:17;19.20;99.90
1468;DHT22;727;48.892;9.544;2023-06-22T00:43:44;19.20;99.90
1468;DHT22;727;48.892;9.544;2023-06-22T00:46:13;19.20;99.90
1468;DHT22;727;48.892;9.544;2023-06-22T00:48:40;19.20;99.90
1468;DHT22;727;48.892;9.544;2023-06-22T00:51:09;19.10;99.90
1468;DHT22;727;48.892;9.544;2023-06-22T00:53:36;19.10;99.90
1468;DHT22;727;48.892;9.544;2023-06-22T00:56:04;19.10;99.90
1468;DHT22;727;48.892;9.544;2023-06-22T00:58:32;19.10;99.90
1468;DHT22;727;48.892;9.544;2023-06-22T01:00:58;19.10;99.90
1468;DHT22;727;48.892;9.544;2023-06-22T01:03:27;19.00;99.90
1468;DHT22;727;48.892;9.544;2023-06-22T01:05:59;19.00;99.90
1468;DHT22;727;48.892;9.544;2023-06-22T01:08:33;19.00;99.90
1468;DHT22;727;48.892;9.544;2023-06-22T01:11:08;19.00;99.90
1468;DHT22;727;48.892;9.544;2023-06-22T01:13:43;18.90;99.90
1468;DHT22;727;48.892;9.544;2023-06-22T01:16:14;18.90;99.90
1468;DHT22;727;48.892;9.544;2023-06-22T01:18:44;18.80;99.90
1468;DHT22;727;48.892;9.544;2023-06-22T01:21:15;18.80;99.90
1468;DHT22;727;48.892;9.544;2023-06-22T01:23:53;18.80;99.90
1468;DHT22;727;48.892;9.544;2023-06-22T01:26:32;18.80;99.90
1468;DHT22;727;48.892;9.544;2023-06-22T01:29:04;18.80;99.90
1468;DHT22;727;48.892;9.544;2023-06-22T01:31:32;18.80;99.90
1468;DHT22;727;48.892;9.544;2023-06-22T01:34:02;18.80;99.90
1468;DHT22;727;48.892;9.544;2023-06-22T01:36:30;18.70;99.90
1468;DHT22;727;48.892;9.544;2023-06-22T01:38:59;18.70;99.90
1468;DHT22;727;48.892;9.544;2023-06-22T01:41:26;18.70;99.90
1468;DHT22;727;48.892;9.544;2023-06-22T01:43:55;18.70;99.90
1468;DHT22;727;48.892;9.544;2023-06-22T01:46:24;18.60;99.90
1468;DHT22;727;48.892;9.544;2023-06-22T01:48:51;18.60;99.90
1468;DHT22;727;48.892;9.544;2023-06-22T01:51:19;18.60;99.90
1468;DHT22;727;48.892;9.544;2023-06-22T01:53:45;18.60;99.90
1468;DHT22;727;48.892;9.544;2023-06-22T01:56:14;18.60;99.90
1468;DHT22;727;48.892;9.544;2023-06-22T01:58:47;18.60;99.90
1468;DHT22;727;48.892;9.544;2023-06-22T02:01:18;18.60;99.90
1468;DHT22;727;48.892;9.544;2023-06-22T02:03:52;18.50;99.90
1468;DHT22;727;48.892;9.544;2023-06-22T02:06:23;18.50;99.90
1468;DHT22;727;48.892;9.544;2023-06-22T02:08:55;18.50;99.90
1468;DHT22;727;48.892;9.544;2023-06-22T02:11:26;18.50;99.90
1468;DHT22;727;48.892;9.544;2023-06-22T02:13:55;18.50;99.90
1468;DHT22;727;48.892;9.544;2023-06-22T02:16:23;18.50;99.90
1468;DHT22;727;48.892;9.544;2023-06-22T02:18:51;18.50;99.90
1468;DHT22;727;48.892;9.544;2023-06-22T02:21:18;18.50;99.90
1468;DHT22;727;48.892;9.544;2023-06-22T02:23:46;18.40;99.90
1468;DHT22;727;48.892;9.544;2023-06-22T02:26:13;18.40;99.90
1468;DHT22;727;48.892;9.544;2023-06-22T02:28:40;18.40;99.90
1468;DHT22;727;48.892;9.544;2023-06-22T02:31:07;18.40;99.90
1468;DHT22;727;48.892;9.544;2023-06-22T02:33:34;18.40;99.90
1468;DHT22;727;48.892;9.544;2023-06-22T02:36:02;18.40;99.90
1468;DHT22;727;48.892;9.544;2023-06-22T02:38:30;18.30;99.90
1468;DHT22;727;48.892;9.544;2023-06-22T02:41:00;18.30;99.90
1468;DHT22;727;48.892;9.544;2023-06-22T02:43:26;18.30;99.90
1468;DHT22;727;48.892;9.544;2023-06-22T02:45:53;18.30;99.90
1468;DHT22;727;48.892;9.544;2023-06-22T02:48:20;18.20;99.90
1468;DHT22;727;48.892;9.544;2023-06-22T02:50:47;18.20;99.90
1468;DHT22;727;48.892;9.544;2023-06-22T02:53:15;18.20;99.90
1468;DHT22;727;48.892;9.544;2023-06-22T02:55:42;18.20;99.90
1468;DHT22;727;48.892;9.544;2023-06-22T02:58:09;18.20;99.90
1468;DHT22;727;48.892;9.544;2023-06-22T03:00:35;18.20;99.90
1468;DHT22;727;48.892;9.544;2023-06-22T03:03:05;18.20;99.90
1468;DHT22;727;48.892;9.544;2023-06-22T03:05:31;18.10;99.90
1468;DHT22;727;48.892;9.544;2023-06-22T03:08:00;18.10;99.90
1468;DHT22;727;48.892;9.544;2023-06-22T03:10:28;18.10;99.90
1468;DHT22;727;48.892;9.544;2023-06-22T03:12:55;18.10;99.90
1468;DHT22;727;48.892;9.544;2023-06-22T03:15:22;18.10;99.90
1468;DHT22;727;48.892;9.544;2023-06-22T03:17:49;18.10;99.90
1468;DHT22;727;48.892;9.544;2023-06-22T03:20:15;18.10;99.90
1468;DHT22;727;48.892;9.544;2023-06-22T03:22:42;18.10;99.90
1468;DHT22;727;48.892;9.544;2023-06-22T03:25:09;18.10;99.90
1468;DHT22;727;48.892;9.544;2023-06-22T03:27:39;18.10;99.90
1468;DHT22;727;48.892;9.544;2023-06-22T03:30:07;18.10;99.90
1468;DHT22;727;48.892;9.544;2023-06-22T03:32:34;18.10;99.90
1468;DHT22;727;48.892;9.544;2023-06-22T03:35:01;18.20;99.90
1468;DHT22;727;48.892;9.544;2023-06-22T03:37:28;18.20;99.90
1468;DHT22;727;48.892;9.544;2023-06-22T03:39:55;18.20;99.90
1468;DHT22;727;48.892;9.544;2023-06-22T03:42:22;18.30;99.90
1468;DHT22;727;48.892;9.544;2023-06-22T03:44:50;18.30;99.90
1468;DHT22;727;48.892;9.544;2023-06-22T03:47:17;18.30;99.90
1468;DHT22;727;48.892;9.544;2023-06-22T03:49:44;18.40;99.90
1468;DHT22;727;48.892;9.544;2023-06-22T03:52:11;18.50;99.90
1468;DHT22;727;48.892;9.544;2023-06-22T03:54:37;18.60;99.90
1468;DHT22;727;48.892;9.544;2023-06-22T03:57:04;18.60;99.90
1468;DHT22;727;48.892;9.544;2023-06-22T03:59:31;18.60;99.90
1468;DHT22;727;48.892;9.544;2023-06-22T04:02:00;18.60;99.90
1468;DHT22;727;48.892;9.544;2023-06-22T04:04:27;18.70;99.90
1468;DHT22;727;48.892;9.544;2023-06-22T04:06:54;18.70;99.90
1468;DHT22;727;48.892;9.544;2023-06-22T04:09:21;18.80;99.90
1468;DHT22;727;48.892;9.544;2023-06-22T04:11:48;18.90;99.90
1468;DHT22;727;48.892;9.544;2023-06-22T04:14:15;19.00;99.90
1468;DHT22;727;48.892;9.544;2023-06-22T04:16:41;19.10;99.90
1468;DHT22;727;48.892;9.544;2023-06-22T04:19:09;19.30;99.90
1468;DHT22;727;48.892;9.544;2023-06-22T04:21:41;19.40;99.90
1468;DHT22;727;48.892;9.544;2023-06-22T04:24:08;19.60;99.90
1468;DHT22;727;48.892;9.544;2023-06-22T04:26:35;19.70;99.90
1468;DHT22;727;48.892;9.544;2023-06-22T04:29:03;20.00;99.90
1468;DHT22;727;48.892;9.544;2023-06-22T04:31:31;20.10;99.90
1468;DHT22;727;48.892;9.544;2023-06-22T04:34:02;20.40;99.90
1468;DHT22;727;48.892;9.544;2023-06-22T04:36:34;20.60;99.90
1468;DHT22;727;48.892;9.544;2023-06-22T04:39:04;20.80;99.90
1468;DHT22;727;48.892;9.544;2023-06-22T04:41:31;21.00;99.90
1468;DHT22;727;48.892;9.544;2023-06-22T04:44:08;21.20;99.90
1468;DHT22;727;48.892;9.544;2023-06-22T04:46:34;21.70;99.90
1468;DHT22;727;48.892;9.544;2023-06-22T04:49:05;22.30;99.90
1468;DHT22;727;48.892;9.544;2023-06-22T04:51:37;23.20;99.90
1468;DHT22;727;48.892;9.544;2023-06-22T04:54:04;24.00;99.90
1468;DHT22;727;48.892;9.544;2023-06-22T04:56:31;24.50;99.90
1468;DHT22;727;48.892;9.544;2023-06-22T04:58:58;24.90;99.90
1468;DHT22;727;48.892;9.544;2023-06-22T05:01:25;25.20;99.20
1468;DHT22;727;48.892;9.544;2023-06-22T05:03:52;25.50;97.90
1468;DHT22;727;48.892;9.544;2023-06-22T05:06:21;25.60;97.20
1468;DHT22;727;48.892;9.544;2023-06-22T05:08:52;25.60;97.00
1468;DHT22;727;48.892;9.544;2023-06-22T05:11:18;25.70;97.00
1468;DHT22;727;48.892;9.544;2023-06-22T05:13:45;26.00;96.50
1468;DHT22;727;48.892;9.544;2023-06-22T05:16:12;26.40;95.50
1468;DHT22;727;48.892;9.544;2023-06-22T05:18:39;26.50;95.00
1468;DHT22;727;48.892;9.544;2023-06-22T05:21:07;26.90;94.20
1468;DHT22;727;48.892;9.544;2023-06-22T05:23:33;27.20;93.60
1468;DHT22;727;48.892;9.544;2023-06-22T05:26:02;27.70;93.30
1468;DHT22;727;48.892;9.544;2023-06-22T05:28:29;28.10;91.80
1468;DHT22;727;48.892;9.544;2023-06-22T05:30:55;28.60;90.60
1468;DHT22;727;48.892;9.544;2023-06-22T05:33:24;28.90;89.30
1468;DHT22;727;48.892;9.544;2023-06-22T05:35:51;28.70;89.60
1468;DHT22;727;48.892;9.544;2023-06-22T05:38:18;28.80;88.90
1468;DHT22;727;48.892;9.544;2023-06-22T05:40:45;29.20;88.20
1468;DHT22;727;48.892;9.544;2023-06-22T05:43:37;29.50;85.80
1468;DHT22;727;48.892;9.544;2023-06-22T05:46:04;29.10;85.70
1468;DHT22;727;48.892;9.544;2023-06-22T05:48:31;28.40;87.80
1468;DHT22;727;48.892;9.544;2023-06-22T05:50:58;28.30;90.10
1468;DHT22;727;48.892;9.544;2023-06-22T05:53:25;28.60;88.70
1468;DHT22;727;48.892;9.544;2023-06-22T05:55:52;28.90;88.20
1468;DHT22;727;48.892;9.544;2023-06-22T05:58:19;29.10;87.30
1468;DHT22;727;48.892;9.544;2023-06-22T06:00:47;29.20;85.50
1468;DHT22;727;48.892;9.544;2023-06-22T06:03:14;29.00;86.80
1468;DHT22;727;48.892;9.544;2023-06-22T06:05:43;29.00;86.70
1468;DHT22;727;48.892;9.544;2023-06-22T06:08:13;29.00;85.90
1468;DHT22;727;48.892;9.544;2023-06-22T06:10:41;28.90;85.80
1468;DHT22;727;48.892;9.544;2023-06-22T06:13:07;28.60;86.50
1468;DHT22;727;48.892;9.544;2023-06-22T06:15:35;28.00;87.50
1468;DHT22;727;48.892;9.544;2023-06-22T06:18:03;27.90;89.00
1468;DHT22;727;48.892;9.544;2023-06-22T06:20:31;27.70;89.00
1468;DHT22;727;48.892;9.544;2023-06-22T06:22:59;27.80;88.80
1468;DHT22;727;48.892;9.544;2023-06-22T06:25:25;27.90;89.10
1468;DHT22;727;48.892;9.544;2023-06-22T06:27:52;27.90;88.60
1468;DHT22;727;48.892;9.544;2023-06-22T06:30:20;27.80;88.50
1468;DHT22;727;48.892;9.544;2023-06-22T06:32:47;27.40;89.80
1468;DHT22;727;48.892;9.544;2023-06-22T06:35:16;27.40;90.20
1468;DHT22;727;48.892;9.544;2023-06-22T06:37:44;27.40;89.20
1468;DHT22;727;48.892;9.544;2023-06-22T06:40:12;27.30;90.10
1468;DHT22;727;48.892;9.544;2023-06-22T06:42:41;27.40;90.00
1468;DHT22;727;48.892;9.544;2023-06-22T06:45:10;27.50;88.70
1468;DHT22;727;48.892;9.544;2023-06-22T06:47:37;27.30;89.50
1468;DHT22;727;48.892;9.544;2023-06-22T06:50:06;27.40;90.00
1468;DHT22;727;48.892;9.544;2023-06-22T06:52:50;27.40;89.50
1468;DHT22;727;48.892;9.544;2023-06-22T06:55:17;27.50;89.20
1468;DHT22;727;48.892;9.544;2023-06-22T06:57:44;27.50;88.30
1468;DHT22;727;48.892;9.544;2023-06-22T07:00:14;27.60;88.30
1468;DHT22;727;48.892;9.544;2023-06-22T07:02:42;27.70;88.70
1468;DHT22;727;48.892;9.544;2023-06-22T07:05:11;28.00;87.10
1468;DHT22;727;48.892;9.544;2023-06-22T07:07:38;28.30;89.50
1468;DHT22;727;48.892;9.544;2023-06-22T07:10:09;28.70;84.60
1468;DHT22;727;48.892;9.544;2023-06-22T07:12:36;28.90;83.20
1468;DHT22;727;48.892;9.544;2023-06-22T07:15:04;28.90;82.80
1468;DHT22;727;48.892;9.544;2023-06-22T07:17:31;28.90;83.00
1468;DHT22;727;48.892;9.544;2023-06-22T07:19:58;29.20;82.20
1468;DHT22;727;48.892;9.544;2023-06-22T07:22:26;29.50;81.10
1468;DHT22;727;48.892;9.544;2023-06-22T07:24:52;29.60;79.90
1468;DHT22;727;48.892;9.544;2023-06-22T07:27:21;29.50;79.90
1468;DHT22;727;48.892;9.544;2023-06-22T07:29:48;29.60;79.50
1468;DHT22;727;48.892;9.544;2023-06-22T07:32:15;29.60;79.00
1468;DHT22;727;48.892;9.544;2023-06-22T07:34:42;29.50;78.90
1468;DHT22;727;48.892;9.544;2023-06-22T07:37:09;29.40;78.90
1468;DHT22;727;48.892;9.544;2023-06-22T07:39:36;29.30;81.30
1468;DHT22;727;48.892;9.544;2023-06-22T07:42:03;29.40;78.90
1468;DHT22;727;48.892;9.544;2023-06-22T07:44:31;29.50;78.50
1468;DHT22;727;48.892;9.544;2023-06-22T07:46:58;29.50;79.10
1468;DHT22;727;48.892;9.544;2023-06-22T07:49:25;29.30;78.90
1468;DHT22;727;48.892;9.544;2023-06-22T07:51:52;29.30;79.70
1468;DHT22;727;48.892;9.544;2023-06-22T07:54:19;29.50;79.30
1468;DHT22;727;48.892;9.544;2023-06-22T07:56:46;29.70;78.30
1468;DHT22;727;48.892;9.544;2023-06-22T07:59:13;29.70;77.80
1468;DHT22;727;48.892;9.544;2023-06-22T08:01:41;29.80;77.50
1468;DHT22;727;48.892;9.544;2023-06-22T08:04:08;30.20;76.70
1468;DHT22;727;48.892;9.544;2023-06-22T08:06:35;30.30;75.50
1468;DHT22;727;48.892;9.544;2023-06-22T08:09:02;30.30;76.40
1468;DHT22;727;48.892;9.544;2023-06-22T08:11:29;30.60;75.60
1468;DHT22;727;48.892;9.544;2023-06-22T08:13:56;30.70;74.40
1468;DHT22;727;48.892;9.544;2023-06-22T08:16:24;30.90;73.90
1468;DHT22;727;48.892;9.544;2023-06-22T08:18:52;31.10;72.90
1468;DHT22;727;48.892;9.544;2023-06-22T08:21:19;31.20;72.70
1468;DHT22;727;48.892;9.544;2023-06-22T08:23:45;31.10;73.00
1468;DHT22;727;48.892;9.544;2023-06-22T08:26:12;31.60;71.00
1468;DHT22;727;48.892;9.544;2023-06-22T08:28:39;31.70;70.10
1468;DHT22;727;48.892;9.544;2023-06-22T08:31:06;31.50;70.30
1468;DHT22;727;48.892;9.544;2023-06-22T08:33:32;31.80;69.70
1468;DHT22;727;48.892;9.544;2023-06-22T08:36:01;32.10;70.30
1468;DHT22;727;48.892;9.544;2023-06-22T08:38:27;32.30;67.10
1468;DHT22;727;48.892;9.544;2023-06-22T08:40:54;32.40;68.00
1468;DHT22;727;48.892;9.544;2023-06-22T08:43:21;32.00;68.00
1468;DHT22;727;48.892;9.544;2023-06-22T08:45:48;32.40;67.00
1468;DHT22;727;48.892;9.544;2023-06-22T08:48:14;32.50;66.60
1468;DHT22;727;48.892;9.544;2023-06-22T08:50:41;32.60;65.60
1468;DHT22;727;48.892;9.544;2023-06-22T08:53:09;32.90;65.70
1468;DHT22;727;48.892;9.544;2023-06-22T08:55:36;33.00;64.50
1468;DHT22;727;48.892;9.544;2023-06-22T08:58:03;33.50;62.20
1468;DHT22;727;48.892;9.544;2023-06-22T09:00:30;33.50;61.60
1468;DHT22;727;48.892;9.544;2023-06-22T09:03:00;33.10;62.00
1468;DHT22;727;48.892;9.544;2023-06-22T09:05:30;32.90;63.30
1468;DHT22;727;48.892;9.544;2023-06-22T09:07:56;32.90;63.40
1468;DHT22;727;48.892;9.544;2023-06-22T09:10:25;33.20;61.80
1468;DHT22;727;48.892;9.544;2023-06-22T09:12:52;33.40;61.00
1468;DHT22;727;48.892;9.544;2023-06-22T09:15:19;33.40;60.90
1468;DHT22;727;48.892;9.544;2023-06-22T09:17:46;33.50;61.10
1468;DHT22;727;48.892;9.544;2023-06-22T09:20:13;33.40;60.50
1468;DHT22;727;48.892;9.544;2023-06-22T09:22:40;33.30;62.70
1468;DHT22;727;48.892;9.544;2023-06-22T09:25:07;33.80;60.70
1468;DHT22;727;48.892;9.544;2023-06-22T09:27:35;33.80;60.00
1468;DHT22;727;48.892;9.544;2023-06-22T09:30:03;33.80;60.00
1468;DHT22;727;48.892;9.544;2023-06-22T09:32:30;33.90;59.20
1468;DHT22;727;48.892;9.544;2023-06-22T09:34:57;34.00;59.40
1468;DHT22;727;48.892;9.544;2023-06-22T09:37:23;34.20;58.60
1468;DHT22;727;48.892;9.544;2023-06-22T09:39:50;34.10;58.30
1468;DHT22;727;48.892;9.544;2023-06-22T09:42:17;34.10;58.50
1468;DHT22;727;48.892;9.544;2023-06-22T09:44:45;34.10;58.40
1468;DHT22;727;48.892;9.544;2023-06-22T09:47:12;34.20;59.20
1468;DHT22;727;48.892;9.544;2023-06-22T09:49:39;34.40;58.20
1468;DHT22;727;48.892;9.544;2023-06-22T09:52:06;34.70;57.80
1468;DHT22;727;48.892;9.544;2023-06-22T09:54:33;34.90;56.70
1468;DHT22;727;48.892;9.544;2023-06-22T09:57:00;34.80;56.80
1468;DHT22;727;48.892;9.544;2023-06-22T09:59:27;34.80;56.80
1468;DHT22;727;48.892;9.544;2023-06-22T10:01:55;35.00;56.30
1468;DHT22;727;48.892;9.544;2023-06-22T10:04:22;35.20;55.50
1468;DHT22;727;48.892;9.544;2023-06-22T10:06:50;34.70;55.60
1468;DHT22;727;48.892;9.544;2023-06-22T10:09:16;34.50;56.20
1468;DHT22;727;48.892;9.544;2023-06-22T10:11:43;34.30;56.90
1468;DHT22;727;48.892;9.544;2023-06-22T10:14:10;34.50;56.90
1468;DHT22;727;48.892;9.544;2023-06-22T10:16:37;34.40;56.60
1468;DHT22;727;48.892;9.544;2023-06-22T10:19:06;34.60;56.20
1468;DHT22;727;48.892;9.544;2023-06-22T10:21:32;35.00;55.70
1468;DHT22;727;48.892;9.544;2023-06-22T10:24:00;35.30;55.40
1468;DHT22;727;48.892;9.544;2023-06-22T10:26:31;35.70;54.80
1468;DHT22;727;48.892;9.544;2023-06-22T10:28:59;35.90;53.50
1468;DHT22;727;48.892;9.544;2023-06-22T10:31:26;35.80;53.50
1468;DHT22;727;48.892;9.544;2023-06-22T10:33:53;35.70;53.80
1468;DHT22;727;48.892;9.544;2023-06-22T10:36:22;35.70;53.70
1468;DHT22;727;48.892;9.544;2023-06-22T10:38:49;35.70;53.20
1468;DHT22;727;48.892;9.544;2023-06-22T10:41:16;35.50;53.80
1468;DHT22;727;48.892;9.544;2023-06-22T10:43:42;35.50;53.90
1468;DHT22;727;48.892;9.544;2023-06-22T10:46:09;35.60;53.70
1468;DHT22;727;48.892;9.544;2023-06-22T10:48:36;35.90;53.60
1468;DHT22;727;48.892;9.544;2023-06-22T10:51:03;36.00;53.50
1468;DHT22;727;48.892;9.544;2023-06-22T10:53:32;36.20;52.90
1468;DHT22;727;48.892;9.544;2023-06-22T10:56:00;36.40;52.80
1468;DHT22;727;48.892;9.544;2023-06-22T10:58:26;36.60;51.90
1468;DHT22;727;48.892;9.544;2023-06-22T11:00:53;37.00;51.70
1468;DHT22;727;48.892;9.544;2023-06-22T11:03:21;37.30;51.30
1468;DHT22;727;48.892;9.544;2023-06-22T11:05:47;37.10;51.10
1468;DHT22;727;48.892;9.544;2023-06-22T11:08:14;37.10;50.90
1468;DHT22;727;48.892;9.544;2023-06-22T11:10:43;37.20;50.00
1468;DHT22;727;48.892;9.544;2023-06-22T11:13:10;37.00;50.60
1468;DHT22;727;48.892;9.544;2023-06-22T11:15:38;36.50;51.20
1468;DHT22;727;48.892;9.544;2023-06-22T11:18:06;36.40;52.10
1468;DHT22;727;48.892;9.544;2023-06-22T11:20:33;36.60;52.10
1468;DHT22;727;48.892;9.544;2023-06-22T11:23:04;36.90;52.10
1468;DHT22;727;48.892;9.544;2023-06-22T11:25:32;37.00;50.50
1468;DHT22;727;48.892;9.544;2023-06-22T11:28:02;37.00;50.70
1468;DHT22;727;48.892;9.544;2023-06-22T11:30:28;37.00;50.70
1468;DHT22;727;48.892;9.544;2023-06-22T11:32:56;37.10;51.20
1468;DHT22;727;48.892;9.544;2023-06-22T11:35:23;37.50;50.00
1468;DHT22;727;48.892;9.544;2023-06-22T11:37:50;37.60;49.70
1468;DHT22;727;48.892;9.544;2023-06-22T11:40:16;37.40;49.70
1468;DHT22;727;48.892;9.544;2023-06-22T11:42:44;37.60;49.00
1468;DHT22;727;48.892;9.544;2023-06-22T11:45:12;37.60;48.30
1468;DHT22;727;48.892;9.544;2023-06-22T11:47:40;37.50;48.90
1468;DHT22;727;48.892;9.544;2023-06-22T11:50:08;37.60;48.30
1468;DHT22;727;48.892;9.544;2023-06-22T11:52:35;37.60;47.90
1468;DHT22;727;48.892;9.544;2023-06-22T11:55:02;37.50;48.50
1468;DHT22;727;48.892;9.544;2023-06-22T11:57:32;37.50;49.10
1468;DHT22;727;48.892;9.544;2023-06-22T11:59:59;37.50;47.50
1468;DHT22;727;48.892;9.544;2023-06-22T12:02:27;37.20;48.70
1468;DHT22;727;48.892;9.544;2023-06-22T12:04:54;36.90;49.70
1468;DHT22;727;48.892;9.544;2023-06-22T12:07:23;36.60;50.40
1468;DHT22;727;48.892;9.544;2023-06-22T12:09:50;36.40;50.60
1468;DHT22;727;48.892;9.544;2023-06-22T12:12:17;36.20;51.50
1468;DHT22;727;48.892;9.544;2023-06-22T12:14:49;35.80;51.20
1468;DHT22;727;48.892;9.544;2023-06-22T12:17:15;35.60;51.60
1468;DHT22;727;48.892;9.544;2023-06-22T12:19:44;35.40;51.80
1468;DHT22;727;48.892;9.544;2023-06-22T12:22:11;35.40;52.10
1468;DHT22;727;48.892;9.544;2023-06-22T12:24:38;35.60;52.20
1468;DHT22;727;48.892;9.544;2023-06-22T12:27:04;35.80;51.70
1468;DHT22;727;48.892;9.544;2023-06-22T12:29:31;36.00;51.80
1468;DHT22;727;48.892;9.544;2023-06-22T12:31:58;36.30;51.60
1468;DHT22;727;48.892;9.544;2023-06-22T12:34:26;36.50;51.10
1468;DHT22;727;48.892;9.544;2023-06-22T12:40:07;36.40;50.30
1468;DHT22;727;48.892;9.544;2023-06-22T12:42:35;36.20;51.10
1468;DHT22;727;48.892;9.544;2023-06-22T12:45:07;35.90;51.70
1468;DHT22;727;48.892;9.544;2023-06-22T12:47:34;35.50;53.40
1468;DHT22;727;48.892;9.544;2023-06-22T12:53:03;34.90;53.90
1468;DHT22;727;48.892;9.544;2023-06-22T13:34:27;33.80;58.20
1468;DHT22;727;48.892;9.544;2023-06-22T13:36:55;33.90;58.60
1468;DHT22;727;48.892;9.544;2023-06-22T13:42:08;34.10;59.50
1468;DHT22;727;48.892;9.544;2023-06-22T13:44:35;34.30;62.00
1468;DHT22;727;48.892;9.544;2023-06-22T13:47:01;34.40;60.30
1468;DHT22;727;48.892;9.544;2023-06-22T13:49:34;34.50;62.00
1468;DHT22;727;48.892;9.544;2023-06-22T13:52:01;34.60;62.50
1468;DHT22;727;48.892;9.544;2023-06-22T13:54:28;34.40;61.00
1468;DHT22;727;48.892;9.544;2023-06-22T13:56:55;34.20;61.60
1468;DHT22;727;48.892;9.544;2023-06-22T13:59:22;34.10;62.70
1468;DHT22;727;48.892;9.544;2023-06-22T14:01:49;33.90;61.80
1468;DHT22;727;48.892;9.544;2023-06-22T14:04:16;33.80;63.60
1468;DHT22;727;48.892;9.544;2023-06-22T14:06:44;34.00;65.40
1468;DHT22;727;48.892;9.544;2023-06-22T14:09:14;34.20;65.00
1468;DHT22;727;48.892;9.544;2023-06-22T14:11:44;34.00;65.50
1468;DHT22;727;48.892;9.544;2023-06-22T14:14:11;34.00;64.00
1468;DHT22;727;48.892;9.544;2023-06-22T14:16:38;34.10;64.30
1468;DHT22;727;48.892;9.544;2023-06-22T14:19:05;34.20;63.30
1468;DHT22;727;48.892;9.544;2023-06-22T14:21:32;34.40;62.90
1468;DHT22;727;48.892;9.544;2023-06-22T14:24:00;34.50;62.50
1468;DHT22;727;48.892;9.544;2023-06-22T14:26:27;34.60;60.00
1468;DHT22;727;48.892;9.544;2023-06-22T14:28:54;34.80;59.20
1468;DHT22;727;48.892;9.544;2023-06-22T14:31:24;34.80;59.60
1468;DHT22;727;48.892;9.544;2023-06-22T14:34:01;34.70;60.80
1468;DHT22;727;48.892;9.544;2023-06-22T14:36:31;34.40;61.70
1468;DHT22;727;48.892;9.544;2023-06-22T14:39:00;34.60;62.50
1468;DHT22;727;48.892;9.544;2023-06-22T14:41:27;34.60;61.60
1468;DHT22;727;48.892;9.544;2023-06-22T14:43:55;34.70;62.00
1468;DHT22;727;48.892;9.544;2023-06-22T14:46:22;34.80;61.80
1468;DHT22;727;48.892;9.544;2023-06-22T14:48:51;34.90;60.80
1468;DHT22;727;48.892;9.544;2023-06-22T14:51:18;34.90;60.80
1468;DHT22;727;48.892;9.544;2023-06-22T14:53:46;35.10;59.30
1468;DHT22;727;48.892;9.544;2023-06-22T14:56:16;35.20;57.70
1468;DHT22;727;48.892;9.544;2023-06-22T14:58:43;35.10;58.10
1468;DHT22;727;48.892;9.544;2023-06-22T15:01:11;35.30;54.60
1468;DHT22;727;48.892;9.544;2023-06-22T15:03:54;35.40;56.60
1468;DHT22;727;48.892;9.544;2023-06-22T15:06:41;35.40;53.20
1468;DHT22;727;48.892;9.544;2023-06-22T15:09:11;35.30;52.80
1468;DHT22;727;48.892;9.544;2023-06-22T15:11:57;35.30;53.50
1468;DHT22;727;48.892;9.544;2023-06-22T15:14:26;35.30;52.90
1468;DHT22;727;48.892;9.544;2023-06-22T15:16:53;35.30;53.20
1468;DHT22;727;48.892;9.544;2023-06-22T15:19:20;35.50;51.60
1468;DHT22;727;48.892;9.544;2023-06-22T15:21:49;35.50;51.30
1468;DHT22;727;48.892;9.544;2023-06-22T15:24:19;35.60;51.60
1468;DHT22;727;48.892;9.544;2023-06-22T15:26:48;35.60;51.30
1468;DHT22;727;48.892;9.544;2023-06-22T15:29:32;35.40;50.70
1468;DHT22;727;48.892;9.544;2023-06-22T15:32:00;35.10;52.40
1468;DHT22;727;48.892;9.544;2023-06-22T15:34:27;34.90;51.90
1468;DHT22;727;48.892;9.544;2023-06-22T15:36:55;34.80;50.90
1468;DHT22;727;48.892;9.544;2023-06-22T15:39:22;34.90;51.10
1468;DHT22;727;48.892;9.544;2023-06-22T15:41:53;35.00;50.30
1468;DHT22;727;48.892;9.544;2023-06-22T15:44:35;34.80;50.70
1468;DHT22;727;48.892;9.544;2023-06-22T15:47:04;34.80;50.40
1468;DHT22;727;48.892;9.544;2023-06-22T15:49:33;34.70;50.00
1468;DHT22;727;48.892;9.544;2023-06-22T15:52:02;34.60;50.10
1468;DHT22;727;48.892;9.544;2023-06-22T15:54:30;34.40;51.30
1468;DHT22;727;48.892;9.544;2023-06-22T15:56:57;34.30;50.80
1468;DHT22;727;48.892;9.544;2023-06-22T15:59:24;34.00;51.50
1468;DHT22;727;48.892;9.544;2023-06-22T16:01:52;33.70;52.10
1468;DHT22;727;48.892;9.544;2023-06-22T16:04:21;33.50;52.20
1468;DHT22;727;48.892;9.544;2023-06-22T16:06:47;33.20;53.10
1468;DHT22;727;48.892;9.544;2023-06-22T16:09:14;33.10;53.80
1468;DHT22;727;48.892;9.544;2023-06-22T16:11:41;33.10;55.00
1468;DHT22;727;48.892;9.544;2023-06-22T16:14:08;32.90;54.80
1468;DHT22;727;48.892;9.544;2023-06-22T16:16:35;32.90;52.60
1468;DHT22;727;48.892;9.544;2023-06-22T16:19:03;32.80;52.10
1468;DHT22;727;48.892;9.544;2023-06-22T16:21:31;32.80;50.80
1468;DHT22;727;48.892;9.544;2023-06-22T16:23:58;32.90;50.20
1468;DHT22;727;48.892;9.544;2023-06-22T16:26:29;33.00;50.00
1468;DHT22;727;48.892;9.544;2023-06-22T16:28:57;32.90;49.10
1468;DHT22;727;48.892;9.544;2023-06-22T16:31:24;32.90;48.70
1468;DHT22;727;48.892;9.544;2023-06-22T16:33:55;32.80;48.70
1468;DHT22;727;48.892;9.544;2023-06-22T16:36:26;32.70;48.80
1468;DHT22;727;48.892;9.544;2023-06-22T16:38:53;32.60;48.50
1468;DHT22;727;48.892;9.544;2023-06-22T16:41:20;32.60;48.70
1468;DHT22;727;48.892;9.544;2023-06-22T16:43:48;32.50;48.80
1468;DHT22;727;48.892;9.544;2023-06-22T16:46:15;32.50;48.50
1468;DHT22;727;48.892;9.544;2023-06-22T16:48:44;32.40;48.90
1468;DHT22;727;48.892;9.544;2023-06-22T16:51:16;32.40;49.50
1468;DHT22;727;48.892;9.544;2023-06-22T16:53:46;32.30;48.90
1468;DHT22;727;48.892;9.544;2023-06-22T16:56:22;32.20;49.60
1468;DHT22;727;48.892;9.544;2023-06-22T16:58:50;32.10;49.30
1468;DHT22;727;48.892;9.544;2023-06-22T17:01:18;32.00;50.80
1468;DHT22;727;48.892;9.544;2023-06-22T17:03:48;31.80;53.70
1468;DHT22;727;48.892;9.544;2023-06-22T17:06:18;31.70;53.10
1468;DHT22;727;48.892;9.544;2023-06-22T17:08:47;31.50;52.00
1468;DHT22;727;48.892;9.544;2023-06-22T17:11:16;31.40;52.70